Time;durP1;ratioP1;P1;durP2;ratioP2;P2;SDS_P1;SDS_P2;PMS_P1;PMS_P2;Temp;Humidity;BMP_temperature;BMP_pressure;BME280_temperature;BME280_humidity;BME280_pressure;Samples;Min_cycle;Max_cycle;Signal;HPM_P1;HPM_P2
2022/10/15 00:00:32;;;;;;;;;;;14.50;99.90;;;;;;5081900;28;19936;-74
2022/10/15 00:02:58;;;;;;;;;;;14.60;99.90;;;;;;5064158;28;19912;-75
2022/10/15 00:05:23;;;;;;;;;;;14.50;99.90;;;;;;5082887;28;19915;-73
2022/10/15 00:07:49;;;;;;;;;;;14.50;99.90;;;;;;5082462;28;19916;-73
2022/10/15 00:10:15;;;;;;;;;;;14.50;99.90;;;;;;5082790;28;19916;-74
2022/10/15 00:12:41;;;;;;;;;;;14.50;99.90;;;;;;5081175;28;20253;-74
2022/10/15 00:15:07;;;;;;;;;;;14.50;99.90;;;;;;5082802;28;19909;-74
2022/10/15 00:17:33;;;;;;;;;;;14.50;99.90;;;;;;5082456;28;20256;-74
2022/10/15 00:19:58;;;;;;;;;;;14.50;99.90;;;;;;5082472;28;19915;-74
2022/10/15 00:22:24;;;;;;;;;;;14.40;99.90;;;;;;5081578;28;19921;-74
2022/10/15 00:24:50;;;;;;;;;;;14.40;99.90;;;;;;5082944;28;19915;-74
2022/10/15 00:27:15;;;;;;;;;;;14.40;99.90;;;;;;5082448;28;19909;-74
2022/10/15 00:29:41;;;;;;;;;;;14.40;99.90;;;;;;5082663;28;19912;-73
2022/10/15 00:32:07;;;;;;;;;;;14.40;99.90;;;;;;5082582;28;19912;-74
2022/10/15 00:34:33;;;;;;;;;;;14.40;99.90;;;;;;5082376;28;19908;-74
2022/10/15 00:36:58;;;;;;;;;;;14.40;99.90;;;;;;5082159;28;19919;-73
2022/10/15 00:39:24;;;;;;;;;;;14.40;99.90;;;;;;5080940;28;19916;-73
2022/10/15 00:41:49;;;;;;;;;;;14.40;99.90;;;;;;5081462;28;19921;-74
2022/10/15 00:44:24;;;;;;;;;;;14.40;99.90;;;;;;5082643;28;19915;-75
2022/10/15 00:47:05;;;;;;;;;;;14.40;99.90;;;;;;5082225;28;19920;-73
2022/10/15 00:49:52;;;;;;;;;;;14.40;99.90;;;;;;5080580;28;19955;-74
2022/10/15 00:52:38;;;;;;;;;;;14.30;99.90;;;;;;5082403;28;19989;-74
2022/10/15 00:55:09;;;;;;;;;;;14.40;99.90;;;;;;5081267;28;19912;-74
2022/10/15 00:57:35;;;;;;;;;;;14.40;99.90;;;;;;5080859;28;19916;-74
2022/10/15 01:00:04;;;;;;;;;;;14.40;99.90;;;;;;5081154;28;19936;-74
2022/10/15 01:02:29;;;;;;;;;;;14.40;99.90;;;;;;5064258;28;19959;-76
2022/10/15 01:04:55;;;;;;;;;;;14.30;99.90;;;;;;5081440;28;19936;-74
2022/10/15 01:07:21;;;;;;;;;;;14.30;99.90;;;;;;5081956;28;19909;-74
2022/10/15 01:09:46;;;;;;;;;;;14.30;99.90;;;;;;5082224;28;19947;-74
2022/10/15 01:12:26;;;;;;;;;;;14.40;99.90;;;;;;5082258;28;19919;-74
2022/10/15 01:15:30;;;;;;;;;;;14.30;99.90;;;;;;5065754;28;20215;-75
2022/10/15 01:18:02;;;;;;;;;;;14.40;99.90;;;;;;5076894;28;19915;-74
2022/10/15 01:20:51;;;;;;;;;;;14.30;99.90;;;;;;5080803;28;19919;-73
2022/10/15 01:24:01;;;;;;;;;;;14.30;99.90;;;;;;5076072;28;19913;-74
2022/10/15 01:26:29;;;;;;;;;;;14.30;99.90;;;;;;5023783;28;19909;-74
2022/10/15 01:29:13;;;;;;;;;;;14.30;99.90;;;;;;5023928;28;20203;-74
2022/10/15 01:31:56;;;;;;;;;;;14.30;99.90;;;;;;5063954;28;19999;-74
2022/10/15 01:34:26;;;;;;;;;;;14.30;99.90;;;;;;5069560;28;19908;-74
2022/10/15 01:37:07;;;;;;;;;;;14.30;99.90;;;;;;5051368;28;19908;-72
2022/10/15 01:39:33;;;;;;;;;;;14.30;99.90;;;;;;5069025;28;19909;-71
2022/10/15 01:42:01;;;;;;;;;;;14.30;99.90;;;;;;5066934;28;19986;-71
2022/10/15 01:44:39;;;;;;;;;;;14.30;99.90;;;;;;5084511;28;19917;-71
2022/10/15 01:47:11;;;;;;;;;;;14.30;99.90;;;;;;5084183;28;19916;-71
2022/10/15 01:49:38;;;;;;;;;;;14.30;99.90;;;;;;5084415;28;19908;-71
2022/10/15 01:52:10;;;;;;;;;;;14.30;99.90;;;;;;5084374;28;19908;-71
2022/10/15 01:54:36;;;;;;;;;;;14.30;99.90;;;;;;5067773;28;20200;-72
2022/10/15 01:57:01;;;;;;;;;;;14.20;99.90;;;;;;5083687;28;19922;-71
2022/10/15 01:59:29;;;;;;;;;;;14.30;99.90;;;;;;5067424;28;19908;-71
2022/10/15 02:01:55;;;;;;;;;;;14.20;99.90;;;;;;5067567;28;20002;-71
2022/10/15 02:04:25;;;;;;;;;;;14.30;99.90;;;;;;5083343;28;19909;-71
2022/10/15 02:07:05;;;;;;;;;;;14.30;99.90;;;;;;5084875;28;20249;-71
2022/10/15 02:09:36;;;;;;;;;;;14.30;99.90;;;;;;5085121;28;19947;-71
2022/10/15 02:12:30;;;;;;;;;;;14.30;99.90;;;;;;5084017;28;20119;-71
2022/10/15 02:15:17;;;;;;;;;;;14.30;99.90;;;;;;5085095;28;19961;-71
2022/10/15 02:18:11;;;;;;;;;;;14.30;99.90;;;;;;5083462;28;20139;-71
2022/10/15 02:21:08;;;;;;;;;;;14.30;99.90;;;;;;5084908;28;20203;-72
2022/10/15 02:23:51;;;;;;;;;;;14.30;99.90;;;;;;5084441;28;19913;-71
2022/10/15 02:26:17;;;;;;;;;;;14.30;99.90;;;;;;5083433;28;19908;-72
2022/10/15 02:28:53;;;;;;;;;;;14.30;99.90;;;;;;5066909;28;20314;-72
2022/10/15 02:31:19;;;;;;;;;;;14.30;99.90;;;;;;5068181;28;19916;-72
2022/10/15 02:33:45;;;;;;;;;;;14.30;99.90;;;;;;5066108;28;19909;-71
2022/10/15 02:36:11;;;;;;;;;;;14.20;99.90;;;;;;5066579;28;19915;-72
2022/10/15 02:38:37;;;;;;;;;;;14.30;99.90;;;;;;5083318;28;19919;-71
2022/10/15 02:41:03;;;;;;;;;;;14.30;99.90;;;;;;5066584;28;19917;-72
2022/10/15 02:43:29;;;;;;;;;;;14.30;99.90;;;;;;5066150;28;20135;-71
2022/10/15 02:45:54;;;;;;;;;;;14.30;99.90;;;;;;5066552;28;19908;-72
2022/10/15 02:48:20;;;;;;;;;;;14.20;99.90;;;;;;5083919;28;19916;-72
2022/10/15 02:50:45;;;;;;;;;;;14.20;99.90;;;;;;5084347;28;19954;-72
2022/10/15 02:53:11;;;;;;;;;;;14.20;99.90;;;;;;5084177;28;20215;-72
2022/10/15 02:55:37;;;;;;;;;;;14.20;99.90;;;;;;5084285;28;19916;-71
2022/10/15 02:58:03;;;;;;;;;;;14.20;99.90;;;;;;5083812;28;19918;-72
2022/10/15 03:00:28;;;;;;;;;;;14.20;99.90;;;;;;5084112;28;19951;-71
2022/10/15 03:02:55;;;;;;;;;;;14.20;99.90;;;;;;5084000;28;19919;-71
2022/10/15 03:05:20;;;;;;;;;;;14.30;99.90;;;;;;5083507;28;19909;-71
2022/10/15 03:07:46;;;;;;;;;;;14.30;99.90;;;;;;5083619;28;20127;-71
2022/10/15 03:10:11;;;;;;;;;;;14.30;99.90;;;;;;5080047;28;19928;-72
2022/10/15 03:12:37;;;;;;;;;;;14.30;99.90;;;;;;5075211;28;19913;-71
2022/10/15 03:15:03;;;;;;;;;;;14.30;99.90;;;;;;5079211;28;19943;-71
2022/10/15 03:17:29;;;;;;;;;;;14.30;99.90;;;;;;5083387;28;19916;-71
2022/10/15 03:19:54;;;;;;;;;;;14.30;99.90;;;;;;5083296;28;19958;-71
2022/10/15 03:22:20;;;;;;;;;;;14.30;99.90;;;;;;5083417;28;19987;-72
2022/10/15 03:24:46;;;;;;;;;;;14.30;99.90;;;;;;5083637;28;19915;-72
2022/10/15 03:27:12;;;;;;;;;;;14.30;99.90;;;;;;5083213;28;19912;-71
2022/10/15 03:29:37;;;;;;;;;;;14.30;99.90;;;;;;5083592;28;19915;-71
2022/10/15 03:32:03;;;;;;;;;;;14.30;99.90;;;;;;5082363;28;19916;-71
2022/10/15 03:34:29;;;;;;;;;;;14.30;99.90;;;;;;5076573;28;20219;-71
2022/10/15 03:36:55;;;;;;;;;;;14.30;99.90;;;;;;5081805;28;19908;-71
2022/10/15 03:39:20;;;;;;;;;;;14.30;99.90;;;;;;5083332;28;19909;-71
2022/10/15 03:41:46;;;;;;;;;;;14.30;99.90;;;;;;5083202;28;20118;-71
2022/10/15 03:44:12;;;;;;;;;;;14.30;99.90;;;;;;5082243;28;19931;-72
2022/10/15 03:46:37;;;;;;;;;;;14.30;99.90;;;;;;5082127;28;20467;-72
2022/10/15 03:49:03;;;;;;;;;;;14.20;99.90;;;;;;5081744;28;20238;-71
2022/10/15 03:51:29;;;;;;;;;;;14.20;99.90;;;;;;5081947;28;19908;-72
2022/10/15 03:53:54;;;;;;;;;;;14.30;99.90;;;;;;5082031;28;19916;-72
2022/10/15 03:56:20;;;;;;;;;;;14.30;99.90;;;;;;5082814;28;19985;-72
2022/10/15 03:58:46;;;;;;;;;;;14.30;99.90;;;;;;5082963;28;19908;-72
2022/10/15 04:01:13;;;;;;;;;;;14.30;99.90;;;;;;5082590;28;19913;-72
2022/10/15 04:03:39;;;;;;;;;;;14.20;99.90;;;;;;5079436;28;19916;-72
2022/10/15 04:06:05;;;;;;;;;;;14.20;99.90;;;;;;5082641;28;20092;-72
2022/10/15 04:08:30;;;;;;;;;;;14.30;99.90;;;;;;5079633;28;19915;-72
2022/10/15 04:10:58;;;;;;;;;;;14.30;99.90;;;;;;5081229;28;19912;-71
2022/10/15 04:13:24;;;;;;;;;;;14.30;99.90;;;;;;5078335;28;20234;-72
2022/10/15 04:15:49;;;;;;;;;;;14.30;99.90;;;;;;5081559;28;20207;-72
2022/10/15 04:18:15;;;;;;;;;;;14.30;99.90;;;;;;5082435;28;19915;-71
2022/10/15 04:20:41;;;;;;;;;;;14.30;99.90;;;;;;5082409;28;19908;-71
2022/10/15 04:23:08;;;;;;;;;;;14.30;99.90;;;;;;5081606;28;19912;-71
2022/10/15 04:25:35;;;;;;;;;;;14.40;99.90;;;;;;5082712;28;19953;-71
2022/10/15 04:28:00;;;;;;;;;;;14.30;99.90;;;;;;5081197;28;19914;-71
2022/10/15 04:30:26;;;;;;;;;;;14.40;99.90;;;;;;5082649;28;19909;-71
2022/10/15 04:32:52;;;;;;;;;;;14.30;99.90;;;;;;5081714;28;19975;-71
2022/10/15 04:35:17;;;;;;;;;;;14.40;99.90;;;;;;5076296;28;19908;-71
2022/10/15 04:37:43;;;;;;;;;;;14.30;99.90;;;;;;5082011;28;19920;-71
2022/10/15 04:40:09;;;;;;;;;;;14.30;99.90;;;;;;5082473;28;19946;-71
2022/10/15 04:42:35;;;;;;;;;;;14.30;99.90;;;;;;5081257;28;19983;-71
2022/10/15 04:45:01;;;;;;;;;;;14.30;99.90;;;;;;5082554;28;20195;-72
2022/10/15 04:47:26;;;;;;;;;;;14.30;99.90;;;;;;5081872;28;19916;-72
2022/10/15 04:49:52;;;;;;;;;;;14.30;99.90;;;;;;5082220;28;19914;-72
2022/10/15 04:52:18;;;;;;;;;;;14.30;99.90;;;;;;5081602;28;19916;-72
2022/10/15 04:54:44;;;;;;;;;;;14.30;99.90;;;;;;5077712;28;19920;-72
2022/10/15 04:57:10;;;;;;;;;;;14.30;99.90;;;;;;5081836;28;20142;-72
2022/10/15 04:59:35;;;;;;;;;;;14.30;99.90;;;;;;5083253;28;20119;-72
2022/10/15 05:02:01;;;;;;;;;;;14.30;99.90;;;;;;5085878;28;19919;-72
2022/10/15 05:04:26;;;;;;;;;;;14.30;99.90;;;;;;5085316;28;19916;-72
2022/10/15 05:06:52;;;;;;;;;;;14.30;99.90;;;;;;5086055;28;20143;-72
2022/10/15 05:09:18;;;;;;;;;;;14.30;99.90;;;;;;5086173;28;19939;-72
2022/10/15 05:11:43;;;;;;;;;;;14.30;99.90;;;;;;5082868;28;19960;-71
2022/10/15 05:14:09;;;;;;;;;;;14.30;99.90;;;;;;5082061;28;19913;-72
2022/10/15 05:16:35;;;;;;;;;;;14.40;99.90;;;;;;5074811;28;19950;-71
2022/10/15 05:19:02;;;;;;;;;;;14.40;99.90;;;;;;5072704;28;19958;-71
2022/10/15 05:21:28;;;;;;;;;;;14.40;99.90;;;;;;5068085;28;19964;-71
2022/10/15 05:23:54;;;;;;;;;;;14.40;99.90;;;;;;5085890;28;19923;-71
2022/10/15 05:26:21;;;;;;;;;;;14.40;99.90;;;;;;5085609;28;20084;-71
2022/10/15 05:28:47;;;;;;;;;;;14.30;99.90;;;;;;5083526;28;19920;-71
2022/10/15 05:31:15;;;;;;;;;;;14.40;99.90;;;;;;5083336;28;20256;-71
2022/10/15 05:33:41;;;;;;;;;;;14.30;99.90;;;;;;5084716;28;19948;-71
2022/10/15 05:36:18;;;;;;;;;;;14.30;99.90;;;;;;5081875;28;19935;-71
2022/10/15 05:38:45;;;;;;;;;;;14.30;99.90;;;;;;5084162;28;19924;-71
2022/10/15 05:41:10;;;;;;;;;;;14.40;99.90;;;;;;5067644;28;20114;-71
2022/10/15 05:43:36;;;;;;;;;;;14.40;99.90;;;;;;5085383;28;19909;-71
2022/10/15 05:46:02;;;;;;;;;;;14.40;99.90;;;;;;5079023;28;20222;-71
2022/10/15 05:48:27;;;;;;;;;;;14.40;99.90;;;;;;5085119;28;19971;-71
2022/10/15 05:50:53;;;;;;;;;;;14.40;99.90;;;;;;5083626;28;19917;-71
2022/10/15 05:53:19;;;;;;;;;;;14.40;99.90;;;;;;5074311;28;20156;-70
2022/10/15 05:55:44;;;;;;;;;;;14.40;99.90;;;;;;5083086;28;20207;-72
2022/10/15 05:58:10;;;;;;;;;;;14.40;99.90;;;;;;5085151;28;19987;-72
2022/10/15 06:00:36;;;;;;;;;;;14.40;99.90;;;;;;5079567;28;19950;-72
2022/10/15 06:03:01;;;;;;;;;;;14.40;99.90;;;;;;5078239;28;19924;-72
2022/10/15 06:05:27;;;;;;;;;;;14.40;99.90;;;;;;5081581;28;19926;-72
2022/10/15 06:07:52;;;;;;;;;;;14.40;99.90;;;;;;5081272;28;19916;-71
2022/10/15 06:10:18;;;;;;;;;;;14.30;99.90;;;;;;5083845;28;20203;-72
2022/10/15 06:12:48;;;;;;;;;;;14.40;99.90;;;;;;5080190;28;19950;-72
2022/10/15 06:15:14;;;;;;;;;;;14.40;99.90;;;;;;5084851;28;19919;-72
2022/10/15 06:17:40;;;;;;;;;;;14.40;99.90;;;;;;5085174;28;19912;-72
2022/10/15 06:20:06;;;;;;;;;;;14.40;99.90;;;;;;5078268;28;19912;-70
2022/10/15 06:22:31;;;;;;;;;;;14.40;99.90;;;;;;5080152;28;19917;-70
2022/10/15 06:24:57;;;;;;;;;;;14.40;99.90;;;;;;5084588;28;19909;-71
2022/10/15 06:27:23;;;;;;;;;;;14.40;99.90;;;;;;5084191;28;19916;-71
2022/10/15 06:29:48;;;;;;;;;;;14.50;99.90;;;;;;5084665;28;19916;-70
2022/10/15 06:32:14;;;;;;;;;;;14.50;99.90;;;;;;5084122;28;19908;-71
2022/10/15 06:34:40;;;;;;;;;;;14.50;99.90;;;;;;5084412;28;19916;-71
2022/10/15 06:37:05;;;;;;;;;;;14.50;99.90;;;;;;5084217;28;19954;-71
2022/10/15 06:39:31;;;;;;;;;;;14.50;99.90;;;;;;5084463;28;19908;-71
2022/10/15 06:41:56;;;;;;;;;;;14.60;99.90;;;;;;5084412;28;20211;-71
2022/10/15 06:44:22;;;;;;;;;;;14.60;99.90;;;;;;5084552;28;20203;-70
2022/10/15 06:46:48;;;;;;;;;;;14.60;99.90;;;;;;5084185;28;20112;-71
2022/10/15 06:49:13;;;;;;;;;;;14.60;99.90;;;;;;5083876;28;19983;-70
2022/10/15 06:51:39;;;;;;;;;;;14.60;99.90;;;;;;5082483;28;19912;-70
2022/10/15 06:54:05;;;;;;;;;;;14.60;99.90;;;;;;5083575;28;20112;-71
2022/10/15 06:56:30;;;;;;;;;;;14.60;99.90;;;;;;5083574;28;19908;-70
2022/10/15 06:58:56;;;;;;;;;;;14.70;99.90;;;;;;5082513;28;19915;-70
2022/10/15 07:01:22;;;;;;;;;;;14.70;99.90;;;;;;5082568;28;19987;-70
2022/10/15 07:03:51;;;;;;;;;;;14.70;99.90;;;;;;5083302;28;20354;-70
2022/10/15 07:06:16;;;;;;;;;;;14.80;99.90;;;;;;5082526;28;19975;-70
2022/10/15 07:08:43;;;;;;;;;;;14.80;99.90;;;;;;5083465;28;19915;-70
2022/10/15 07:11:09;;;;;;;;;;;14.80;99.90;;;;;;5083470;28;19916;-70
2022/10/15 07:13:35;;;;;;;;;;;14.80;99.90;;;;;;5083359;28;19909;-70
2022/10/15 07:16:08;;;;;;;;;;;14.90;99.90;;;;;;5083076;28;19908;-69
2022/10/15 07:18:34;;;;;;;;;;;14.90;99.90;;;;;;5081478;28;19946;-70
2022/10/15 07:20:59;;;;;;;;;;;14.90;99.90;;;;;;5082654;28;19943;-70
2022/10/15 07:23:26;;;;;;;;;;;14.90;99.90;;;;;;5075819;28;20784;-70
2022/10/15 07:25:52;;;;;;;;;;;14.90;99.90;;;;;;5082631;28;19924;-70
2022/10/15 07:28:17;;;;;;;;;;;15.00;99.90;;;;;;5079780;28;19923;-70
2022/10/15 07:30:43;;;;;;;;;;;15.00;99.90;;;;;;5082954;28;19920;-70
2022/10/15 07:33:09;;;;;;;;;;;15.00;99.90;;;;;;5083297;28;19916;-70
2022/10/15 07:35:35;;;;;;;;;;;15.10;99.90;;;;;;5081821;28;19915;-70
2022/10/15 07:38:01;;;;;;;;;;;15.10;99.90;;;;;;5081667;28;20110;-70
2022/10/15 07:40:27;;;;;;;;;;;15.10;99.90;;;;;;5082091;28;19983;-69
2022/10/15 07:42:56;;;;;;;;;;;15.20;99.90;;;;;;5083179;28;20218;-70
2022/10/15 07:45:22;;;;;;;;;;;15.20;99.90;;;;;;5082000;28;19999;-71
2022/10/15 07:47:48;;;;;;;;;;;15.20;99.90;;;;;;5081848;28;19920;-71
2022/10/15 07:50:14;;;;;;;;;;;15.20;99.90;;;;;;5082575;28;19954;-69
2022/10/15 07:52:40;;;;;;;;;;;15.30;99.90;;;;;;5082938;28;19908;-70
2022/10/15 07:55:06;;;;;;;;;;;15.30;99.90;;;;;;5083578;28;19915;-70
2022/10/15 07:57:31;;;;;;;;;;;15.40;99.90;;;;;;5082726;28;19971;-71
2022/10/15 07:59:57;;;;;;;;;;;15.40;99.90;;;;;;5083298;28;20130;-70
2022/10/15 08:02:23;;;;;;;;;;;15.40;99.90;;;;;;5082754;28;19988;-71
2022/10/15 08:04:48;;;;;;;;;;;15.40;99.90;;;;;;5082980;28;19921;-71
2022/10/15 08:07:14;;;;;;;;;;;15.40;99.90;;;;;;5078187;28;20354;-72
2022/10/15 08:09:40;;;;;;;;;;;15.50;99.90;;;;;;5076334;28;19946;-72
2022/10/15 08:12:05;;;;;;;;;;;15.50;99.90;;;;;;5079284;28;19926;-71
2022/10/15 08:14:32;;;;;;;;;;;15.50;99.90;;;;;;5076499;28;20207;-72
2022/10/15 08:16:58;;;;;;;;;;;15.60;99.90;;;;;;5080312;28;19920;-72
2022/10/15 08:19:23;;;;;;;;;;;15.70;99.90;;;;;;5082232;28;19909;-71
2022/10/15 08:21:49;;;;;;;;;;;15.70;99.90;;;;;;5082348;28;19908;-72
2022/10/15 08:24:15;;;;;;;;;;;15.80;99.90;;;;;;5082582;28;19927;-72
2022/10/15 08:26:40;;;;;;;;;;;15.80;99.90;;;;;;5079103;28;19951;-72
2022/10/15 08:29:06;;;;;;;;;;;15.90;99.90;;;;;;5077753;28;19908;-72
2022/10/15 08:31:32;;;;;;;;;;;15.90;99.90;;;;;;5078171;28;19919;-72
2022/10/15 08:34:01;;;;;;;;;;;15.90;99.90;;;;;;5078746;28;19920;-71
2022/10/15 08:36:27;;;;;;;;;;;16.00;99.90;;;;;;5081034;28;19916;-72
2022/10/15 08:38:52;;;;;;;;;;;16.00;99.90;;;;;;5082254;28;19916;-72
2022/10/15 08:41:40;;;;;;;;;;;16.00;99.90;;;;;;5080409;28;20269;-71
2022/10/15 08:44:06;;;;;;;;;;;16.00;99.90;;;;;;5080735;28;19923;-71
2022/10/15 08:46:58;;;;;;;;;;;16.00;99.90;;;;;;5064097;28;20255;-71
2022/10/15 08:49:46;;;;;;;;;;;16.00;99.90;;;;;;5078806;28;19928;-72
2022/10/15 08:52:18;;;;;;;;;;;16.10;99.90;;;;;;5039230;28;19924;-72
2022/10/15 08:54:43;;;;;;;;;;;16.10;99.90;;;;;;5054937;28;19920;-72
2022/10/15 08:57:24;;;;;;;;;;;16.10;99.90;;;;;;5081732;28;19923;-72
2022/10/15 09:00:09;;;;;;;;;;;16.10;99.90;;;;;;5081778;28;19979;-72
2022/10/15 09:02:56;;;;;;;;;;;16.10;99.90;;;;;;5063468;28;20023;-72
2022/10/15 09:05:42;;;;;;;;;;;16.10;99.90;;;;;;5071040;28;19977;-72
2022/10/15 09:08:30;;;;;;;;;;;16.20;99.90;;;;;;5078285;28;19970;-71
2022/10/15 09:11:00;;;;;;;;;;;16.30;99.90;;;;;;5074839;28;19921;-71
2022/10/15 09:13:30;;;;;;;;;;;16.30;99.90;;;;;;5080704;28;19912;-71
2022/10/15 09:16:04;;;;;;;;;;;16.40;99.90;;;;;;5081192;28;20222;-72
2022/10/15 09:18:31;;;;;;;;;;;16.40;99.90;;;;;;5080263;28;19919;-72
2022/10/15 09:20:57;;;;;;;;;;;16.40;99.90;;;;;;5084484;28;19991;-72
2022/10/15 09:23:25;;;;;;;;;;;16.50;99.90;;;;;;5080225;28;19921;-72
2022/10/15 09:26:17;;;;;;;;;;;16.60;99.90;;;;;;5080430;28;19981;-72
2022/10/15 09:29:00;;;;;;;;;;;16.60;99.90;;;;;;5082824;28;19919;-72
2022/10/15 09:31:48;;;;;;;;;;;16.80;99.90;;;;;;5079643;28;19982;-72
2022/10/15 09:34:19;;;;;;;;;;;16.90;99.90;;;;;;5073645;28;19920;-73
2022/10/15 09:36:49;;;;;;;;;;;17.00;99.90;;;;;;5079822;28;19955;-72
2022/10/15 09:39:23;;;;;;;;;;;17.00;99.90;;;;;;5079552;28;19944;-71
2022/10/15 09:42:08;;;;;;;;;;;17.10;99.90;;;;;;5079833;28;19913;-72
2022/10/15 09:44:38;;;;;;;;;;;17.20;99.90;;;;;;5084237;28;19987;-72
2022/10/15 09:47:22;;;;;;;;;;;17.20;99.90;;;;;;5049487;28;20008;-72
2022/10/15 09:49:47;;;;;;;;;;;17.20;99.90;;;;;;5079356;28;19971;-72
2022/10/15 09:52:34;;;;;;;;;;;17.20;99.90;;;;;;5084362;28;19927;-72
2022/10/15 09:55:32;;;;;;;;;;;17.20;99.90;;;;;;5084409;28;19908;-74
2022/10/15 09:58:19;;;;;;;;;;;17.20;99.90;;;;;;5073250;28;19920;-72
2022/10/15 10:00:51;;;;;;;;;;;17.20;99.90;;;;;;5081033;28;19921;-73
2022/10/15 10:03:17;;;;;;;;;;;17.20;99.90;;;;;;5077140;28;19983;-69
2022/10/15 10:05:44;;;;;;;;;;;17.10;99.90;;;;;;5077323;28;19917;-79
2022/10/15 10:08:19;;;;;;;;;;;17.10;99.90;;;;;;5063309;28;19908;-76
2022/10/15 10:10:44;;;;;;;;;;;17.10;99.90;;;;;;5069188;28;19912;-79
2022/10/15 10:13:55;;;;;;;;;;;17.00;99.90;;;;;;5067641;28;19915;-81
2022/10/15 10:16:21;;;;;;;;;;;16.90;99.90;;;;;;5084754;28;19908;-73
2022/10/15 10:19:04;;;;;;;;;;;17.00;99.90;;;;;;5083879;28;19930;-77
2022/10/15 10:21:34;;;;;;;;;;;16.90;99.90;;;;;;5083792;28;19915;-72
2022/10/15 10:24:30;;;;;;;;;;;16.90;99.90;;;;;;5084654;28;20207;-77
2022/10/15 10:26:57;;;;;;;;;;;16.90;99.90;;;;;;5083827;28;19914;-74
2022/10/15 10:29:22;;;;;;;;;;;17.00;99.90;;;;;;5084812;28;19946;-75
2022/10/15 10:31:50;;;;;;;;;;;17.00;99.90;;;;;;5083632;28;19927;-76
2022/10/15 10:34:30;;;;;;;;;;;17.10;99.90;;;;;;5083851;28;19909;-78
2022/10/15 10:36:56;;;;;;;;;;;17.20;99.90;;;;;;5084677;28;19954;-76
2022/10/15 10:39:25;;;;;;;;;;;17.30;99.90;;;;;;5084222;28;19916;-74
2022/10/15 10:41:59;;;;;;;;;;;17.30;99.90;;;;;;5084538;28;19946;-76
2022/10/15 10:44:35;;;;;;;;;;;17.40;99.90;;;;;;5093132;28;19916;-80
2022/10/15 10:47:10;;;;;;;;;;;17.40;99.90;;;;;;5082787;28;19912;-77
2022/10/15 10:49:38;;;;;;;;;;;17.40;99.90;;;;;;5082944;28;20202;-74
2022/10/15 10:52:04;;;;;;;;;;;17.50;99.90;;;;;;5083946;28;19920;-73
2022/10/15 10:54:30;;;;;;;;;;;17.50;99.90;;;;;;5084086;28;19913;-80
2022/10/15 10:56:56;;;;;;;;;;;17.60;99.90;;;;;;5090492;28;19995;-74
2022/10/15 10:59:34;;;;;;;;;;;17.60;99.90;;;;;;5083041;28;19920;-77
2022/10/15 11:02:02;;;;;;;;;;;17.70;99.90;;;;;;5080929;28;19916;-75
2022/10/15 11:04:30;;;;;;;;;;;17.70;99.90;;;;;;5066083;28;19916;-75
2022/10/15 11:07:08;;;;;;;;;;;17.80;99.90;;;;;;5088873;28;19919;-74
2022/10/15 11:09:49;;;;;;;;;;;17.90;99.90;;;;;;5065993;28;19942;-73
2022/10/15 11:12:53;;;;;;;;;;;17.90;99.90;;;;;;5070782;28;20038;-77
2022/10/15 11:15:25;;;;;;;;;;;17.90;99.90;;;;;;5083664;28;19917;-72
2022/10/15 11:17:56;;;;;;;;;;;18.00;99.90;;;;;;5083269;28;19996;-71
2022/10/15 11:20:45;;;;;;;;;;;18.00;99.90;;;;;;5083392;28;19915;-71
2022/10/15 11:23:26;;;;;;;;;;;18.10;99.90;;;;;;5080549;28;19913;-76
2022/10/15 11:26:01;;;;;;;;;;;18.20;99.90;;;;;;5082556;28;19919;-71
2022/10/15 11:28:52;;;;;;;;;;;18.20;99.90;;;;;;5083177;28;19909;-75
2022/10/15 11:31:33;;;;;;;;;;;18.20;99.90;;;;;;5083481;28;19915;-77
2022/10/15 11:34:17;;;;;;;;;;;18.10;99.90;;;;;;5083366;28;20197;-70
2022/10/15 11:37:17;;;;;;;;;;;18.10;99.90;;;;;;5081771;28;19908;-75
2022/10/15 11:40:31;;;;;;;;;;;18.00;99.90;;;;;;5083392;28;19930;-77
2022/10/15 11:43:11;;;;;;;;;;;18.00;99.90;;;;;;5073757;28;19923;-77
2022/10/15 11:45:54;;;;;;;;;;;18.10;99.90;;;;;;5066241;28;20275;-76
2022/10/15 11:48:46;;;;;;;;;;;18.10;99.90;;;;;;5065894;28;19912;-72
2022/10/15 11:51:33;;;;;;;;;;;18.10;99.90;;;;;;5082471;28;20203;-73
2022/10/15 11:54:04;;;;;;;;;;;18.10;99.90;;;;;;5065981;28;19967;-73
2022/10/15 11:56:38;;;;;;;;;;;18.10;99.90;;;;;;5080221;28;19909;-72
2022/10/15 11:59:26;;;;;;;;;;;18.20;99.90;;;;;;5072878;28;19919;-74
2022/10/15 12:01:54;;;;;;;;;;;18.20;99.90;;;;;;5072013;28;19912;-75
2022/10/15 12:04:36;;;;;;;;;;;18.30;99.90;;;;;;5048036;28;19928;-74
2022/10/15 12:07:04;;;;;;;;;;;18.30;99.90;;;;;;5076554;28;20200;-73
2022/10/15 12:09:32;;;;;;;;;;;18.20;99.90;;;;;;5081672;28;19931;-75
2022/10/15 12:12:03;;;;;;;;;;;18.20;99.90;;;;;;5064436;28;19927;-73
2022/10/15 12:14:34;;;;;;;;;;;18.10;99.90;;;;;;5065376;28;19920;-72
2022/10/15 12:17:28;;;;;;;;;;;18.00;99.90;;;;;;5080449;28;19913;-73
2022/10/15 12:19:59;;;;;;;;;;;17.90;99.90;;;;;;5078992;28;20284;-72
2022/10/15 12:22:52;;;;;;;;;;;17.80;99.90;;;;;;5081178;28;20461;-73
2022/10/15 12:25:33;;;;;;;;;;;17.80;99.90;;;;;;5078051;28;19949;-73
2022/10/15 12:28:10;;;;;;;;;;;17.70;99.90;;;;;;5062028;28;19954;-73
2022/10/15 12:30:36;;;;;;;;;;;17.90;99.90;;;;;;5061275;28;19923;-73
2022/10/15 12:33:03;;;;;;;;;;;18.10;99.90;;;;;;5068763;28;19940;-73
2022/10/15 12:35:31;;;;;;;;;;;18.50;99.90;;;;;;5082332;28;19917;-73
2022/10/15 12:38:26;;;;;;;;;;;18.80;99.90;;;;;;5082096;28;19980;-73
2022/10/15 12:41:13;;;;;;;;;;;18.90;99.90;;;;;;5081602;28;19908;-73
2022/10/15 12:43:43;;;;;;;;;;;19.00;99.90;;;;;;5081496;28;20131;-73
2022/10/15 12:46:09;;;;;;;;;;;18.90;99.90;;;;;;5080993;28;19927;-73
2022/10/15 12:48:39;;;;;;;;;;;18.90;99.90;;;;;;5064291;28;19909;-73
2022/10/15 12:51:20;;;;;;;;;;;18.80;99.90;;;;;;5082175;28;19908;-73
2022/10/15 12:53:46;;;;;;;;;;;18.80;99.90;;;;;;5082400;28;19912;-73
2022/10/15 12:56:21;;;;;;;;;;;18.70;99.90;;;;;;5063731;28;19908;-72
2022/10/15 12:58:50;;;;;;;;;;;19.00;99.90;;;;;;5082175;28;19909;-73
2022/10/15 13:01:19;;;;;;;;;;;19.30;99.90;;;;;;5064704;28;19913;-73
2022/10/15 13:03:50;;;;;;;;;;;19.50;99.90;;;;;;5082011;28;19916;-74
2022/10/15 13:06:21;;;;;;;;;;;19.60;99.90;;;;;;5080727;28;20011;-73
2022/10/15 13:09:05;;;;;;;;;;;19.50;99.90;;;;;;5082289;28;19916;-72
2022/10/15 13:11:40;;;;;;;;;;;19.50;99.90;;;;;;5082013;28;19915;-73
2022/10/15 13:14:29;;;;;;;;;;;20.00;99.90;;;;;;5064511;28;19908;-73
2022/10/15 13:16:54;;;;;;;;;;;20.40;99.90;;;;;;5080766;28;19946;-73
2022/10/15 13:19:28;;;;;;;;;;;20.40;99.90;;;;;;5083090;28;20134;-73
2022/10/15 13:22:01;;;;;;;;;;;20.20;99.90;;;;;;5068576;28;19908;-73
2022/10/15 13:24:29;;;;;;;;;;;20.00;99.90;;;;;;5085889;28;19913;-74
2022/10/15 13:26:55;;;;;;;;;;;20.10;99.90;;;;;;5084209;28;20111;-73
2022/10/15 13:29:23;;;;;;;;;;;20.80;99.90;;;;;;5084751;28;19909;-73
2022/10/15 13:31:49;;;;;;;;;;;21.50;99.90;;;;;;5084638;28;19954;-73
2022/10/15 13:34:28;;;;;;;;;;;21.70;99.90;;;;;;5084443;28;19909;-73
2022/10/15 13:36:54;;;;;;;;;;;21.90;99.90;;;;;;5083928;28;19920;-74
2022/10/15 13:39:33;;;;;;;;;;;22.30;99.90;;;;;;5084402;28;19912;-73
2022/10/15 13:42:05;;;;;;;;;;;22.00;99.90;;;;;;5084494;28;19914;-73
2022/10/15 13:44:31;;;;;;;;;;;21.50;99.90;;;;;;5085422;28;19916;-73
2022/10/15 13:46:56;;;;;;;;;;;21.10;99.90;;;;;;5067199;28;19982;-73
2022/10/15 13:49:22;;;;;;;;;;;20.90;99.90;;;;;;5084019;28;19916;-73
2022/10/15 13:51:49;;;;;;;;;;;21.40;99.90;;;;;;5083805;28;19916;-73
2022/10/15 13:54:35;;;;;;;;;;;21.40;99.90;;;;;;5084093;28;20022;-73
2022/10/15 13:57:01;;;;;;;;;;;21.10;99.90;;;;;;5084687;28;19915;-72
2022/10/15 13:59:27;;;;;;;;;;;20.70;99.90;;;;;;5084630;28;19909;-72
2022/10/15 14:01:59;;;;;;;;;;;20.40;99.90;;;;;;5067648;28;20120;-72
2022/10/15 14:04:26;;;;;;;;;;;20.10;99.90;;;;;;5084377;28;19916;-72
2022/10/15 14:06:55;;;;;;;;;;;20.40;99.90;;;;;;5083805;28;19916;-72
2022/10/15 14:09:34;;;;;;;;;;;21.10;99.90;;;;;;5085180;28;19923;-72
2022/10/15 14:11:59;;;;;;;;;;;21.80;99.90;;;;;;5085077;28;19908;-72
2022/10/15 14:14:36;;;;;;;;;;;22.20;99.90;;;;;;5082963;28;20088;-72
2022/10/15 14:17:06;;;;;;;;;;;22.30;99.90;;;;;;5084754;28;20178;-72
2022/10/15 14:19:32;;;;;;;;;;;22.10;99.90;;;;;;5085386;28;19921;-73
2022/10/15 14:21:58;;;;;;;;;;;21.80;99.90;;;;;;5083855;28;19944;-74
2022/10/15 14:24:30;;;;;;;;;;;21.50;99.90;;;;;;5083791;28;19912;-73
2022/10/15 14:27:20;;;;;;;;;;;21.30;99.90;;;;;;5084328;28;19908;-73
2022/10/15 14:29:53;;;;;;;;;;;21.00;99.90;;;;;;5082670;28;20222;-73
2022/10/15 14:32:29;;;;;;;;;;;20.60;99.90;;;;;;5083937;28;19924;-73
2022/10/15 14:34:58;;;;;;;;;;;20.40;99.90;;;;;;5083620;28;19916;-73
2022/10/15 14:37:30;;;;;;;;;;;20.30;99.90;;;;;;5083867;28;19912;-73